Terminal Aerodrome Forecast
Issued by NWS

Home | Current Version | Previous Version | Text Only | Print | Product List | Glossary On
Versions: 1 2 3 4 5 6 7 8 9 10 11 12 13 14 15 16 17
000
FTUS45 KRIW 291536 AAA
TAFRKS
TAF AMD
KRKS 291536Z 2916/3012 05014KT P6SM VCSH SCT025 BKN040
      TEMPO 2916/2918 OVC020
     FM292100 03014G24KT P6SM SCT050 BKN080
     FM300100 05011KT P6SM SCT080
     FM300600 VRB05KT P6SM SCT090=

USA.gov is the U.S. government's official web portal to all federal, state and local government web resources and services.